Time;durP1;ratioP1;P1;durP2;ratioP2;P2;SDS_P1;SDS_P2;PMS_P1;PMS_P2;Temp;Humidity;BMP_temperature;BMP_pressure;BME280_temperature;BME280_humidity;BME280_pressure;Samples;Min_cycle;Max_cycle;Signal;HPM_P1;HPM_P2
2021/06/18 00:01:46;;;;;;;43.30;31.33;;;21.10;99.90;;;;;;4919689;29;20040;-86
2021/06/18 00:04:14;;;;;;;41.00;31.63;;;21.10;99.90;;;;;;4919855;29;20051;-86
2021/06/18 00:06:48;;;;;;;43.60;33.53;;;21.10;99.90;;;;;;4919139;29;20043;-86
2021/06/18 00:09:17;;;;;;;41.30;33.00;;;21.30;99.90;;;;;;4920005;29;20036;-86
2021/06/18 00:11:46;;;;;;;41.55;33.08;;;21.00;99.90;;;;;;4921731;29;20044;-86
2021/06/18 00:14:14;;;;;;;41.95;32.45;;;21.00;99.90;;;;;;4918064;29;20108;-81
2021/06/18 00:16:43;;;;;;;45.08;34.13;;;20.90;99.90;;;;;;4918005;29;20046;-81
2021/06/18 00:19:11;;;;;;;42.13;32.78;;;20.90;99.90;;;;;;4902643;29;20040;-81
2021/06/18 00:21:44;;;;;;;47.63;35.80;;;20.90;99.90;;;;;;4919082;29;20042;-81
2021/06/18 00:24:10;;;;;;;41.25;35.38;;;20.90;99.90;;;;;;4902284;29;20051;-81
2021/06/18 00:26:36;;;;;;;42.83;34.75;;;20.90;99.90;;;;;;4901218;29;20145;-81
2021/06/18 00:29:07;;;;;;;41.72;33.85;;;20.90;99.90;;;;;;4919224;29;20104;-81
2021/06/18 00:31:33;;;;;;;46.95;35.10;;;21.00;99.90;;;;;;4917572;29;20100;-81
2021/06/18 00:33:59;;;;;;;48.17;35.40;;;21.00;99.90;;;;;;4918812;29;20473;-81
2021/06/18 00:36:25;;;;;;;47.47;37.00;;;20.90;99.90;;;;;;4917942;29;20048;-81
2021/06/18 00:38:51;;;;;;;46.22;35.08;;;20.90;99.90;;;;;;4918697;29;20047;-81
2021/06/18 00:41:19;;;;;;;49.78;34.40;;;20.80;99.90;;;;;;4902142;29;20405;-81
2021/06/18 00:43:48;;;;;;;43.10;35.35;;;20.80;99.90;;;;;;4918738;29;20043;-81
2021/06/18 00:46:19;;;;;;;45.20;33.80;;;20.70;99.90;;;;;;4918720;29;20499;-81
2021/06/18 00:48:46;;;;;;;41.97;33.35;;;20.80;99.90;;;;;;4917589;29;20052;-81
2021/06/18 00:51:15;;;;;;;48.20;33.50;;;20.80;99.90;;;;;;4902392;29;20040;-81
2021/06/18 00:53:44;;;;;;;44.47;33.53;;;20.80;99.90;;;;;;4917291;29;20048;-85
2021/06/18 00:56:25;;;;;;;43.85;32.75;;;20.80;99.90;;;;;;4917856;29;20090;-86
2021/06/18 00:58:51;;;;;;;36.53;30.05;;;20.80;99.90;;;;;;4917887;29;20430;-86
2021/06/18 01:01:17;;;;;;;38.35;30.85;;;20.80;99.90;;;;;;4917681;29;20087;-86
2021/06/18 01:03:46;;;;;;;39.70;31.98;;;20.80;99.90;;;;;;4933502;29;20036;-86
2021/06/18 01:06:27;;;;;;;36.08;31.20;;;20.80;99.90;;;;;;4901821;29;20071;-85
2021/06/18 01:09:00;;;;;;;43.47;31.63;;;20.80;99.90;;;;;;4918638;29;20036;-86
2021/06/18 01:11:55;;;;;;;40.70;31.80;;;20.80;99.90;;;;;;4917388;29;20040;-85
2021/06/18 01:15:06;;;;;;;41.85;30.80;;;20.80;99.90;;;;;;4917011;29;20048;-81
2021/06/18 01:18:00;;;;;;;45.03;33.00;;;20.80;99.90;;;;;;4897142;29;20172;-81
2021/06/18 01:20:44;;;;;;;42.72;33.40;;;20.70;99.90;;;;;;4902012;29;20056;-86
2021/06/18 01:23:45;;;;;;;37.38;32.05;;;20.70;99.90;;;;;;4917552;29;20059;-86
2021/06/18 01:26:24;;;;;;;42.92;34.10;;;20.80;99.90;;;;;;4918724;29;20549;-85
2021/06/18 01:29:01;;;;;;;41.80;33.00;;;20.60;99.90;;;;;;4906369;29;20041;-85
2021/06/18 01:31:39;;;;;;;40.15;33.45;;;20.60;99.90;;;;;;4932682;29;20047;-86
2021/06/18 01:34:29;;;;;;;39.92;31.65;;;20.60;99.90;;;;;;4917164;29;20529;-86
2021/06/18 01:37:08;;;;;;;42.83;33.50;;;20.60;99.90;;;;;;4917322;29;20055;-86
2021/06/18 01:39:36;;;;;;;;;;;20.60;99.90;;;;;;4918905;29;20070;-86
2021/06/18 01:42:06;;;;;;;43.83;31.42;;;20.50;99.90;;;;;;4917624;29;19919;-86
2021/06/18 01:44:34;;;;;;;41.58;34.05;;;20.50;99.90;;;;;;4919648;29;20500;-86
2021/06/18 01:47:05;;;;;;;50.47;34.30;;;20.40;99.90;;;;;;4918991;29;20601;-86
2021/06/18 01:49:35;;;;;;;43.22;33.30;;;20.40;99.90;;;;;;4918827;29;20036;-86
2021/06/18 01:52:03;;;;;;;40.63;31.88;;;20.50;99.90;;;;;;4916478;29;20115;-86
2021/06/18 01:54:30;;;;;;;46.67;34.03;;;20.50;99.90;;;;;;4918244;29;20397;-86
2021/06/18 01:56:59;;;;;;;37.55;31.95;;;20.40;99.90;;;;;;4917793;29;20144;-86
2021/06/18 01:59:34;;;;;;;40.35;33.38;;;20.50;99.90;;;;;;4917975;29;20111;-85
2021/06/18 02:02:01;;;;;;;47.65;32.40;;;20.50;99.90;;;;;;4916999;29;20044;-86
2021/06/18 02:04:32;;;;;;;40.05;32.13;;;20.50;99.90;;;;;;4918055;29;20285;-86
2021/06/18 02:06:59;;;;;;;42.08;30.98;;;20.50;99.90;;;;;;4918279;29;20036;-86
2021/06/18 02:09:30;;;;;;;42.92;31.83;;;20.50;99.90;;;;;;4917985;29;20052;-87
2021/06/18 02:11:56;;;;;;;40.20;31.95;;;20.50;99.90;;;;;;4918051;29;20047;-87
2021/06/18 02:14:28;;;;;;;36.28;29.80;;;20.40;99.90;;;;;;4916475;29;20044;-86
2021/06/18 02:16:58;;;;;;;38.67;30.83;;;20.50;99.90;;;;;;4916789;29;20068;-85
2021/06/18 02:19:25;;;;;;;34.20;28.88;;;20.50;99.90;;;;;;4917890;29;20123;-87
2021/06/18 02:21:58;;;;;;;38.35;28.58;;;20.50;99.90;;;;;;4904885;29;20044;-86
2021/06/18 02:24:29;;;;;;;37.50;29.65;;;20.60;99.90;;;;;;4916466;29;20048;-86
2021/06/18 02:27:00;;;;;;;41.58;31.08;;;20.50;99.90;;;;;;4917507;29;20213;-86
2021/06/18 02:29:29;;;;;;;36.17;30.85;;;20.50;99.90;;;;;;4901555;29;20067;-86
2021/06/18 02:31:58;;;;;;;39.80;31.55;;;20.50;99.90;;;;;;4916333;29;20052;-86
2021/06/18 02:34:29;;;;;;;39.80;32.65;;;20.60;99.90;;;;;;4917669;29;20480;-86
2021/06/18 02:36:55;;;;;;;38.22;31.13;;;20.60;99.90;;;;;;4932231;29;20036;-85
2021/06/18 02:39:23;;;;;;;41.40;32.92;;;20.60;99.90;;;;;;4916018;29;20084;-86
2021/06/18 02:41:49;;;;;;;43.10;32.10;;;20.60;99.90;;;;;;4917960;29;20036;-86
2021/06/18 02:44:20;;;;;;;39.08;30.67;;;20.40;99.90;;;;;;4920082;29;20036;-86
2021/06/18 02:47:06;;;;;;;40.60;30.88;;;20.60;99.90;;;;;;4920068;29;20107;-86
2021/06/18 02:49:44;;;;;;;41.42;31.70;;;20.50;99.90;;;;;;4931173;29;20088;-86
2021/06/18 02:52:36;;;;;;;37.28;30.77;;;20.50;99.90;;;;;;4917635;29;20040;-85
2021/06/18 02:55:08;;;;;;;42.88;31.40;;;20.50;99.90;;;;;;4916073;29;20044;-85
2021/06/18 02:57:45;;;;;;;42.40;30.63;;;20.50;99.90;;;;;;4915934;29;20040;-85
2021/06/18 03:00:12;;;;;;;40.00;31.05;;;20.50;99.90;;;;;;4919701;29;20135;-86
2021/06/18 03:02:55;;;;;;;39.78;30.73;;;20.50;99.90;;;;;;4916228;29;20040;-85
2021/06/18 03:05:24;;;;;;;40.42;30.60;;;20.50;99.90;;;;;;4904149;29;20066;-81
2021/06/18 03:08:04;;;;;;;38.70;29.40;;;20.50;99.90;;;;;;4916252;29;20111;-81
2021/06/18 03:10:39;;;;;;;38.63;30.33;;;20.50;99.90;;;;;;4931008;29;20040;-81
2021/06/18 03:13:17;;;;;;;39.17;30.40;;;20.50;99.90;;;;;;4916211;29;20123;-81
2021/06/18 03:15:46;;;;;;;37.17;31.43;;;20.50;99.90;;;;;;4915029;29;20156;-81
2021/06/18 03:18:17;;;;;;;39.95;30.65;;;20.50;99.90;;;;;;4930895;29;20060;-81
2021/06/18 03:20:49;;;;;;;38.30;31.80;;;20.40;99.90;;;;;;4916333;29;20125;-81
2021/06/18 03:23:16;;;;;;;39.97;31.77;;;20.40;99.90;;;;;;4915023;29;20123;-80
2021/06/18 03:25:47;;;;;;;35.03;31.08;;;20.40;99.90;;;;;;4915350;29;20032;-81
2021/06/18 03:28:19;;;;;;;39.67;30.75;;;20.40;99.90;;;;;;4899655;29;20048;-81
2021/06/18 03:30:47;;;;;;;35.67;31.15;;;20.40;99.90;;;;;;4899183;29;20051;-81
2021/06/18 03:33:13;;;;;;;39.08;30.38;;;20.30;99.90;;;;;;4916120;29;20071;-81
2021/06/18 03:35:40;;;;;;;41.33;30.85;;;20.20;99.90;;;;;;4930654;29;20039;-85
2021/06/18 03:38:08;;;;;;;37.10;29.75;;;20.10;99.90;;;;;;4916418;29;20092;-85
2021/06/18 03:40:36;;;;;;;35.85;31.98;;;20.10;99.90;;;;;;4915444;29;20063;-85
2021/06/18 03:43:04;;;;;;;40.30;32.50;;;20.00;99.90;;;;;;4915650;29;20067;-85
2021/06/18 03:45:41;;;;;;;39.38;31.58;;;20.00;99.90;;;;;;4916499;29;20095;-85
2021/06/18 03:48:11;;;;;;;40.30;32.53;;;20.00;99.90;;;;;;4915301;29;20048;-85
2021/06/18 03:50:37;;;;;;;35.15;31.20;;;20.00;99.90;;;;;;4916698;29;20036;-85
2021/06/18 03:53:03;;;;;;;40.25;32.97;;;20.00;99.90;;;;;;4915487;29;20087;-85
2021/06/18 03:55:32;;;;;;;37.70;31.05;;;20.00;99.90;;;;;;4915804;29;20398;-85
2021/06/18 03:58:06;;;;;;;36.67;30.95;;;20.00;99.90;;;;;;4915543;29;20107;-85
2021/06/18 04:00:44;;;;;;;35.47;29.13;;;20.10;99.90;;;;;;4915648;29;20048;-85
2021/06/18 04:03:16;;;;;;;36.35;29.80;;;20.00;99.90;;;;;;4902281;29;20458;-81
2021/06/18 04:05:46;;;;;;;38.72;30.75;;;20.00;99.90;;;;;;4930369;29;20055;-81
2021/06/18 04:08:14;;;;;;;37.25;30.35;;;19.90;99.90;;;;;;4915946;29;20044;-81
2021/06/18 04:10:44;;;;;;;39.47;32.22;;;20.00;99.90;;;;;;4915979;29;20064;-81
2021/06/18 04:13:10;;;;;;;39.75;33.22;;;19.90;99.90;;;;;;4915682;29;20044;-81
2021/06/18 04:15:37;;;;;;;41.38;33.92;;;19.90;99.90;;;;;;4917775;29;20040;-81
2021/06/18 04:18:04;;;;;;;38.95;32.22;;;19.90;99.90;;;;;;4917972;29;20060;-81
2021/06/18 04:20:34;;;;;;;40.03;31.35;;;19.90;99.90;;;;;;4919240;29;20111;-85
2021/06/18 04:23:05;;;;;;;38.92;30.38;;;20.00;99.90;;;;;;4934346;29;20122;-85
2021/06/18 04:25:31;;;;;;;35.45;27.90;;;20.00;99.90;;;;;;4902568;29;20052;-81
2021/06/18 04:27:59;;;;;;;33.88;29.15;;;20.10;99.90;;;;;;4902241;29;20111;-81
2021/06/18 04:30:28;;;;;;;39.35;30.23;;;20.20;99.90;;;;;;4918664;29;20060;-85
2021/06/18 04:32:54;;;;;;;31.92;28.52;;;20.20;99.90;;;;;;4919103;29;20115;-85
2021/06/18 04:35:20;;;;;;;40.72;29.23;;;20.30;99.90;;;;;;4918941;29;20144;-85
2021/06/18 04:37:49;;;;;;;35.25;29.17;;;20.20;99.90;;;;;;4918858;29;20048;-81
2021/06/18 04:40:17;;;;;;;31.48;27.92;;;20.30;99.90;;;;;;4917904;29;20442;-81
2021/06/18 04:42:43;;;;;;;34.33;28.00;;;20.30;99.90;;;;;;4906297;29;20547;-86
2021/06/18 04:45:10;;;;;;;34.95;28.95;;;20.40;99.90;;;;;;4918133;29;20044;-85
2021/06/18 04:47:36;;;;;;;34.03;27.75;;;20.40;99.90;;;;;;4917878;29;20050;-85
2021/06/18 04:50:04;;;;;;;32.95;28.70;;;20.40;99.90;;;;;;4917879;29;20086;-86
2021/06/18 04:52:31;;;;;;;33.80;30.02;;;20.50;99.90;;;;;;4933869;29;20114;-86
2021/06/18 04:55:01;;;;;;;35.85;31.38;;;20.50;99.90;;;;;;4919275;29;20036;-85
2021/06/18 04:57:27;;;;;;;36.47;31.67;;;20.40;99.90;;;;;;4902259;29;20050;-82
2021/06/18 04:59:58;;;;;;;35.97;32.05;;;20.50;99.90;;;;;;4917447;29;20047;-81
2021/06/18 05:02:24;;;;;;;40.17;31.42;;;20.40;99.90;;;;;;4932878;29;20488;-81
2021/06/18 05:04:50;;;;;;;39.20;32.50;;;20.70;99.90;;;;;;4901761;29;20048;-81
2021/06/18 05:07:19;;;;;;;36.95;31.10;;;20.50;99.90;;;;;;4917893;29;20552;-86
2021/06/18 05:09:45;;;;;;;35.97;30.63;;;20.60;99.90;;;;;;4917538;29;20040;-82
2021/06/18 05:12:12;;;;;;;33.42;29.75;;;20.60;99.90;;;;;;4918413;29;20051;-82
2021/06/18 05:14:38;;;;;;;32.67;28.58;;;20.50;99.90;;;;;;4917609;29;20063;-86
2021/06/18 05:17:07;;;;;;;32.47;27.35;;;20.50;99.90;;;;;;4917686;29;20083;-87
2021/06/18 05:19:33;;;;;;;33.78;28.05;;;20.50;99.90;;;;;;4901979;29;20055;-86
2021/06/18 05:21:59;;;;;;;30.23;27.08;;;20.50;99.90;;;;;;4902151;29;20052;-86
2021/06/18 05:24:25;;;;;;;30.67;27.35;;;20.50;99.90;;;;;;4918903;29;20054;-86
2021/06/18 05:26:51;;;;;;;31.83;28.58;;;20.40;99.90;;;;;;4916650;29;20114;-86
2021/06/18 05:29:17;;;;;;;35.88;29.25;;;20.40;99.90;;;;;;4901761;29;20066;-87
2021/06/18 05:31:49;;;;;;;31.88;28.08;;;20.40;99.90;;;;;;4901587;29;20056;-86
2021/06/18 05:34:17;;;;;;;32.25;27.77;;;20.30;99.90;;;;;;4918641;29;20036;-82
2021/06/18 05:36:45;;;;;;;36.45;30.00;;;20.40;99.90;;;;;;4917024;29;20037;-87
2021/06/18 05:39:15;;;;;;;33.22;29.65;;;20.40;99.90;;;;;;4917068;29;20572;-87
2021/06/18 05:41:43;;;;;;;34.00;30.33;;;20.40;99.90;;;;;;4901214;29;20707;-82
2021/06/18 05:44:12;;;;;;;37.20;32.10;;;20.40;99.90;;;;;;4917485;29;20488;-82
2021/06/18 05:46:46;;;;;;;36.00;31.98;;;20.40;99.90;;;;;;4916618;29;20098;-82
2021/06/18 05:49:12;;;;;;;37.75;31.95;;;20.40;99.90;;;;;;4900954;29;20044;-82
2021/06/18 05:51:38;;;;;;;38.50;31.55;;;20.40;99.90;;;;;;4917980;29;20111;-82
2021/06/18 05:54:04;;;;;;;39.28;32.03;;;20.40;99.90;;;;;;4916255;29;20509;-82
2021/06/18 05:56:33;;;;;;;41.17;34.50;;;20.40;99.90;;;;;;4917462;29;20055;-82
2021/06/18 05:58:59;;;;;;;38.75;33.90;;;20.40;99.90;;;;;;4916007;29;20476;-81
2021/06/18 06:01:28;;;;;;;37.97;33.67;;;20.40;99.90;;;;;;4916237;29;20043;-82
2021/06/18 06:03:57;;;;;;;37.45;30.73;;;20.40;99.90;;;;;;4916246;29;20504;-81
2021/06/18 06:06:23;;;;;;;40.40;29.98;;;20.40;99.90;;;;;;4917265;29;20040;-82
2021/06/18 06:08:56;;;;;;;31.20;26.63;;;20.50;99.90;;;;;;4917615;29;20051;-81
2021/06/18 06:11:26;;;;;;;30.00;26.08;;;20.40;99.90;;;;;;4915984;29;20036;-82
2021/06/18 06:14:05;;;;;;;28.02;24.35;;;20.50;99.90;;;;;;4917088;29;20044;-82
2021/06/18 06:16:37;;;;;;;27.73;23.20;;;20.50;99.90;;;;;;4931668;29;20489;-82
2021/06/18 06:19:08;;;;;;;26.45;23.55;;;20.60;99.90;;;;;;4931548;29;20041;-82
2021/06/18 06:21:44;;;;;;;25.25;22.65;;;20.60;99.90;;;;;;4900035;29;20032;-82
2021/06/18 06:24:11;;;;;;;25.40;22.70;;;20.40;99.90;;;;;;4915835;29;20063;-86
2021/06/18 06:26:47;;;;;;;24.20;21.58;;;20.60;99.90;;;;;;4916323;29;20047;-86
2021/06/18 06:29:13;;;;;;;26.90;23.92;;;20.50;99.90;;;;;;4916704;29;20131;-87
2021/06/18 06:31:53;;;;;;;25.27;21.92;;;20.50;99.90;;;;;;4915893;29;20048;-87
2021/06/18 06:34:26;;;;;;;25.02;21.60;;;20.50;99.90;;;;;;4914780;29;20591;-87
2021/06/18 06:36:53;;;;;;;26.38;23.65;;;20.50;99.90;;;;;;4899924;29;20040;-87
2021/06/18 06:39:24;;;;;;;26.02;23.30;;;20.50;99.90;;;;;;4916605;29;20080;-86
2021/06/18 06:41:50;;;;;;;24.42;21.88;;;20.50;99.90;;;;;;4915719;29;20067;-86
2021/06/18 06:44:16;;;;;;;25.42;22.38;;;20.60;99.90;;;;;;4900642;29;20044;-86
2021/06/18 06:46:42;;;;;;;25.40;20.45;;;20.60;99.90;;;;;;4931260;29;20036;-87
2021/06/18 06:49:08;;;;;;;22.63;20.10;;;20.70;99.90;;;;;;4916487;29;20033;-87
2021/06/18 06:51:40;;;;;;;21.77;19.67;;;20.80;99.90;;;;;;4915051;29;20378;-86
2021/06/18 06:54:14;;;;;;;23.48;18.92;;;20.90;99.90;;;;;;4930781;29;20044;-86
2021/06/18 06:56:43;;;;;;;20.60;18.58;;;20.90;99.90;;;;;;4899836;29;20055;-85
2021/06/18 06:59:09;;;;;;;19.45;17.50;;;21.00;99.90;;;;;;4930827;29;20044;-86
2021/06/18 07:01:35;;;;;;;19.70;16.65;;;20.90;99.90;;;;;;4916167;29;20040;-85
2021/06/18 07:04:02;;;;;;;19.33;17.45;;;21.00;99.90;;;;;;4915031;29;20068;-85
2021/06/18 07:06:44;;;;;;;18.60;16.58;;;21.00;99.90;;;;;;4904123;29;20036;-86
2021/06/18 07:09:14;;;;;;;19.00;17.00;;;21.00;99.90;;;;;;4916454;29;20449;-87
2021/06/18 07:11:41;;;;;;;19.40;16.98;;;21.20;99.90;;;;;;4899547;29;20107;-86
2021/06/18 07:14:07;;;;;;;17.17;15.38;;;20.90;99.90;;;;;;4930736;29;20040;-86
2021/06/18 07:16:35;;;;;;;17.20;14.35;;;20.90;99.90;;;;;;4916505;29;20043;-86
2021/06/18 07:19:01;;;;;;;17.00;14.90;;;20.90;99.90;;;;;;4915113;29;20039;-86
2021/06/18 07:21:30;;;;;;;16.73;15.05;;;20.90;99.90;;;;;;4914686;29;20469;-87
2021/06/18 07:24:02;;;;;;;17.65;15.80;;;20.90;99.90;;;;;;4905707;29;20047;-86
2021/06/18 07:26:30;;;;;;;17.25;15.65;;;20.90;99.90;;;;;;4912631;29;20552;-86
2021/06/18 07:29:00;;;;;;;18.23;16.33;;;20.80;99.90;;;;;;4930856;29;20095;-87
2021/06/18 07:33:35;;;;;;;19.02;16.75;;;20.90;99.90;;;;;;5170407;27;20471;-86
2021/06/18 07:36:02;;;;;;;16.48;14.77;;;20.90;99.90;;;;;;5113396;28;20047;-86
2021/06/18 07:38:28;;;;;;;15.75;13.82;;;21.00;99.90;;;;;;5130449;28;20114;-86
2021/06/18 07:40:54;;;;;;;12.82;11.52;;;20.90;99.90;;;;;;5113482;28;20475;-87
2021/06/18 07:43:20;;;;;;;13.48;11.30;;;21.00;99.90;;;;;;5143444;27;20054;-87
2021/06/18 07:45:47;;;;;;;14.65;11.02;;;21.00;99.90;;;;;;5147891;27;20027;-87
2021/06/18 07:48:13;;;;;;;12.68;11.35;;;21.00;99.90;;;;;;5131854;27;20031;-86
2021/06/18 07:50:41;;;;;;;13.00;11.15;;;21.00;99.90;;;;;;5127567;28;20057;-87
2021/06/18 07:53:08;;;;;;;11.98;10.77;;;21.00;99.90;;;;;;5132540;28;20042;-87
2021/06/18 07:55:40;;;;;;;12.73;10.85;;;21.00;99.90;;;;;;5131580;28;20043;-87
2021/06/18 07:58:06;;;;;;;11.40;10.25;;;20.80;99.90;;;;;;5117936;28;20032;-87
2021/06/18 08:00:34;;;;;;;13.13;10.75;;;21.20;99.90;;;;;;5092369;28;20385;-87
2021/06/18 08:03:21;;;;;;;13.93;10.98;;;21.20;99.90;;;;;;5129924;28;20039;-87
2021/06/18 08:05:48;;;;;;;15.60;10.48;;;21.30;99.90;;;;;;5130672;27;20031;-87
2021/06/18 08:08:22;;;;;;;10.50;9.50;;;21.30;99.90;;;;;;5106194;28;20040;-82
2021/06/18 08:10:53;;;;;;;12.98;9.93;;;21.40;99.90;;;;;;5096072;28;20498;-82
2021/06/18 08:13:24;;;;;;;14.90;10.20;;;21.50;99.90;;;;;;5115784;28;20096;-82
2021/06/18 08:15:59;;;;;;;11.70;9.82;;;21.50;99.90;;;;;;5130170;27;20062;-82
2021/06/18 08:18:28;;;;;;;12.18;10.45;;;21.60;99.90;;;;;;5128954;28;20494;-82
2021/06/18 08:20:53;;;;;;;19.73;12.05;;;21.60;99.90;;;;;;5128939;28;20036;-82
2021/06/18 08:23:25;;;;;;;15.57;12.57;;;21.50;99.90;;;;;;5128758;28;20092;-82
2021/06/18 08:25:54;;;;;;;14.25;12.35;;;21.60;99.90;;;;;;5128790;28;20080;-82
2021/06/18 08:28:23;;;;;;;16.20;12.35;;;21.50;99.90;;;;;;5129701;27;20080;-82
2021/06/18 08:30:52;;;;;;;20.08;13.68;;;21.50;99.90;;;;;;5112364;28;20049;-82
2021/06/18 08:33:19;;;;;;;14.80;13.25;;;21.50;99.90;;;;;;5128444;28;20130;-82
2021/06/18 08:35:46;;;;;;;16.27;12.90;;;21.50;99.90;;;;;;5129567;27;20055;-82
2021/06/18 08:38:23;;;;;;;18.00;13.98;;;21.50;99.90;;;;;;5129881;27;20043;-82
2021/06/18 08:40:52;;;;;;;17.88;14.07;;;21.60;99.90;;;;;;5111895;28;20039;-82
2021/06/18 08:43:19;;;;;;;19.02;14.73;;;21.50;99.90;;;;;;5111799;28;20040;-82
2021/06/18 08:45:47;;;;;;;18.50;14.30;;;21.60;99.90;;;;;;5111681;28;20040;-82
2021/06/18 08:48:16;;;;;;;19.17;14.18;;;21.70;99.90;;;;;;5115809;28;20370;-82
2021/06/18 08:50:46;;;;;;;16.55;14.73;;;21.80;99.90;;;;;;5081223;28;20039;-82
2021/06/18 08:53:17;;;;;;;15.20;13.60;;;21.80;99.90;;;;;;5114405;28;20037;-82
2021/06/18 08:55:44;;;;;;;14.63;13.10;;;21.90;99.90;;;;;;5114386;28;20036;-82
2021/06/18 08:58:13;;;;;;;16.50;12.88;;;21.80;99.90;;;;;;5115621;28;20050;-82
2021/06/18 09:00:42;;;;;;;16.52;12.80;;;21.80;99.90;;;;;;5094227;28;20055;-82
2021/06/18 09:03:42;;;;;;;17.70;13.15;;;21.90;99.90;;;;;;5100349;28;20043;-82
2021/06/18 09:06:27;;;;;;;17.52;12.75;;;21.90;99.90;;;;;;5081731;28;20051;-82
2021/06/18 09:09:18;;;;;;;16.90;13.07;;;21.90;99.90;;;;;;5114299;28;20043;-82
2021/06/18 09:12:07;;;;;;;24.70;13.40;;;21.90;99.90;;;;;;5104614;28;20058;-82
2021/06/18 09:14:42;;;;;;;15.15;13.40;;;21.90;99.90;;;;;;5115256;28;20043;-82
2021/06/18 09:17:24;;;;;;;13.32;11.98;;;22.10;99.90;;;;;;5115334;27;20032;-82
2021/06/18 09:20:00;;;;;;;12.63;10.45;;;22.00;99.90;;;;;;5115093;28;20039;-82
2021/06/18 09:22:45;;;;;;;14.48;10.93;;;22.20;99.90;;;;;;5115239;28;20107;-82
2021/06/18 09:25:20;;;;;;;13.18;10.48;;;22.00;99.90;;;;;;5097043;28;20399;-82
2021/06/18 09:28:03;;;;;;;10.65;9.55;;;22.10;99.90;;;;;;5083876;28;20051;-82
2021/06/18 09:30:33;;;;;;;13.52;9.77;;;22.10;99.90;;;;;;5115087;28;20028;-82
2021/06/18 09:33:02;;;;;;;11.93;10.73;;;22.10;99.90;;;;;;5113485;28;20047;-81
2021/06/18 09:35:30;;;;;;;15.25;11.50;;;22.20;99.90;;;;;;5112649;28;20475;-82
2021/06/18 09:38:08;;;;;;;16.70;10.60;;;22.20;99.90;;;;;;5114900;28;20036;-82
2021/06/18 09:40:35;;;;;;;15.60;10.80;;;22.30;99.90;;;;;;5112842;28;20047;-82
2021/06/18 09:43:14;;;;;;;12.05;10.80;;;22.40;99.90;;;;;;5114805;28;20039;-82
2021/06/18 09:45:44;;;;;;;14.65;10.70;;;22.50;99.90;;;;;;5080544;28;20055;-83
2021/06/18 09:48:22;;;;;;;13.18;10.38;;;22.60;99.90;;;;;;5113432;28;20038;-83
2021/06/18 09:51:01;;;;;;;12.82;10.73;;;22.70;99.90;;;;;;5113343;28;20027;-82
2021/06/18 09:53:32;;;;;;;15.10;10.55;;;22.80;99.90;;;;;;5110372;28;20056;-82
2021/06/18 09:56:23;;;;;;;13.05;10.98;;;22.90;99.90;;;;;;5109705;28;20507;-82
2021/06/18 09:58:53;;;;;;;15.18;11.32;;;22.90;99.90;;;;;;5113282;28;20062;-82
2021/06/18 10:01:36;;;;;;;14.77;11.68;;;23.00;99.90;;;;;;5096373;28;20039;-82
2021/06/18 10:04:16;;;;;;;13.85;11.40;;;23.00;99.90;;;;;;5096472;28;20043;-82
2021/06/18 10:07:09;;;;;;;14.50;11.70;;;23.00;99.90;;;;;;5080186;28;20557;-83
2021/06/18 10:09:38;;;;;;;13.85;11.88;;;23.10;99.90;;;;;;5111482;28;20108;-83
2021/06/18 10:12:16;;;;;;;;;;;;;;;;;;;;;
2021/06/18 10:14:48;;;;;;;17.17;11.85;;;23.10;99.90;;;;;;5114025;28;20035;-82
2021/06/18 10:17:23;;;;;;;13.85;12.25;;;23.20;99.90;;;;;;5109592;28;20051;-82
2021/06/18 10:19:56;;;;;;;19.48;12.70;;;23.10;99.90;;;;;;5095264;28;20039;-82
2021/06/18 10:22:32;;;;;;;16.40;12.30;;;23.20;99.90;;;;;;5109602;28;20044;-82
2021/06/18 10:25:20;;;;;;;14.50;11.82;;;22.60;99.90;;;;;;5107312;28;20468;-82
2021/06/18 10:27:51;;;;;;;14.75;11.77;;;23.40;99.90;;;;;;5105649;28;20130;-82
2021/06/18 10:30:30;;;;;;;16.08;11.85;;;23.50;99.90;;;;;;5078605;28;20047;-82
2021/06/18 10:36:24;;;;;;;12.93;10.87;;;23.60;99.90;;;;;;5113650;28;20032;-88
2021/06/18 10:39:17;;;;;;;10.30;9.10;;;23.70;99.90;;;;;;5098664;28;20109;-88
2021/06/18 10:41:45;;;;;;;13.40;10.35;;;23.80;99.90;;;;;;5109660;28;20103;-88
2021/06/18 10:44:42;;;;;;;14.70;11.45;;;23.80;99.90;;;;;;5093900;28;20135;-88
2021/06/18 10:47:23;;;;;;;12.95;11.13;;;23.80;99.90;;;;;;5113519;28;20039;-87
2021/06/18 10:49:55;;;;;;;14.60;10.32;;;23.80;99.90;;;;;;5103885;28;20040;-87
2021/06/18 10:52:34;;;;;;;12.27;9.90;;;23.90;99.90;;;;;;5092073;28;20039;-86
2021/06/18 10:55:00;;;;;;;13.30;10.60;;;23.80;99.90;;;;;;5103213;28;20047;-87
2021/06/18 10:57:28;;;;;;;12.25;9.23;;;23.90;99.90;;;;;;5108943;28;20031;-87
2021/06/18 11:00:27;;;;;;;10.05;8.82;;;23.90;99.90;;;;;;5092185;28;20475;-87
2021/06/18 11:02:58;;;;;;;10.40;8.98;;;23.90;99.90;;;;;;5109814;28;20050;-87
2021/06/18 11:05:33;;;;;;;10.57;9.48;;;23.90;99.90;;;;;;5059465;28;20434;-88
2021/06/18 11:08:26;;;;;;;10.27;9.17;;;23.80;99.90;;;;;;5107042;28;20039;-87
2021/06/18 11:10:58;;;;;;;12.18;9.13;;;23.70;99.90;;;;;;5091980;28;20277;-87
2021/06/18 11:13:52;;;;;;;12.65;9.45;;;23.70;99.90;;;;;;5106017;28;20041;-87
2021/06/18 11:16:42;;;;;;;10.93;9.07;;;23.70;99.90;;;;;;5109944;28;20044;-87
2021/06/18 11:19:27;;;;;;;11.27;8.88;;;23.70;99.90;;;;;;5108913;28;20094;-87
2021/06/18 11:21:54;;;;;;;11.35;9.20;;;23.60;99.90;;;;;;5099665;28;20035;-87
2021/06/18 11:24:36;;;;;;;8.73;7.82;;;23.70;99.90;;;;;;5099676;28;20119;-86
2021/06/18 11:27:30;;;;;;;11.75;7.40;;;23.60;99.90;;;;;;5100661;28;20066;-87
2021/06/18 11:30:27;;;;;;;9.02;6.72;;;23.70;99.90;;;;;;5111918;28;20035;-86
2021/06/18 11:32:58;;;;;;;9.73;7.28;;;23.70;99.90;;;;;;5096844;28;20130;-86
2021/06/18 11:35:33;;;;;;;12.63;8.68;;;23.80;99.90;;;;;;5109198;28;20035;-86
2021/06/18 11:38:02;;;;;;;10.57;7.80;;;23.70;99.90;;;;;;5103106;28;20039;-88
2021/06/18 11:40:30;;;;;;;8.85;7.20;;;23.60;99.90;;;;;;5107433;28;20046;-87
2021/06/18 11:43:00;;;;;;;8.27;7.30;;;23.60;99.90;;;;;;5091185;28;20610;-88
2021/06/18 11:45:48;;;;;;;8.15;6.85;;;23.50;99.90;;;;;;5090064;28;20380;-87
2021/06/18 11:48:17;;;;;;;11.43;6.40;;;23.50;99.90;;;;;;5094749;28;20051;-87
2021/06/18 11:50:49;;;;;;;8.90;6.57;;;23.50;99.90;;;;;;5064230;28;20044;-87
2021/06/18 11:53:20;;;;;;;10.75;6.97;;;23.40;99.90;;;;;;5111953;28;20368;-88
2021/06/18 11:56:05;;;;;;;10.93;7.75;;;23.40;99.90;;;;;;5113228;28;20097;-87
2021/06/18 11:58:36;;;;;;;11.02;7.88;;;23.30;99.90;;;;;;5112088;28;20035;-87
2021/06/18 12:01:20;;;;;;;10.60;8.23;;;23.30;99.90;;;;;;5092462;28;20043;-88
2021/06/18 12:04:03;;;;;;;11.90;8.38;;;23.30;99.90;;;;;;5115296;28;20044;-78
2021/06/18 12:06:41;;;;;;;12.18;8.65;;;23.10;99.90;;;;;;5103301;28;20149;-90
2021/06/18 12:09:19;;;;;;;9.68;8.05;;;22.80;99.90;;;;;;5081236;28;20044;-80
2021/06/18 12:11:59;;;;;;;9.52;8.07;;;23.10;99.90;;;;;;5113129;28;20488;-86
2021/06/18 12:14:37;;;;;;;11.73;8.30;;;22.80;99.90;;;;;;5096498;28;20047;-84
2021/06/18 12:17:04;;;;;;;11.20;7.85;;;23.20;99.90;;;;;;5097244;28;20036;-85
2021/06/18 12:19:46;;;;;;;12.07;8.35;;;23.20;99.90;;;;;;5113202;28;20144;-85
2021/06/18 12:22:27;;;;;;;11.18;9.65;;;23.30;99.90;;;;;;5091428;28;20051;-89
2021/06/18 12:25:03;;;;;;;12.57;9.48;;;23.20;99.90;;;;;;5102260;28;20039;-89
2021/06/18 12:27:34;;;;;;;10.20;9.20;;;23.20;99.90;;;;;;5090868;28;20400;-89
2021/06/18 12:30:07;;;;;;;12.93;10.25;;;23.30;99.90;;;;;;5098367;28;20046;-89
2021/06/18 12:32:46;;;;;;;13.95;10.88;;;23.10;99.90;;;;;;5115880;28;20414;-89
2021/06/18 12:35:21;;;;;;;18.55;11.85;;;23.20;99.90;;;;;;5118299;28;20055;-89
2021/06/18 12:37:55;;;;;;;14.25;10.90;;;22.90;99.90;;;;;;5109862;28;20039;-89
2021/06/18 12:40:28;;;;;;;14.60;10.45;;;23.00;99.90;;;;;;5111546;28;20042;-89
2021/06/18 12:43:16;;;;;;;19.95;11.15;;;23.10;99.90;;;;;;5102025;28;20043;-89
2021/06/18 12:45:47;;;;;;;17.17;10.85;;;23.20;99.90;;;;;;5117308;28;20122;-89
2021/06/18 12:48:21;;;;;;;15.18;10.63;;;23.30;99.90;;;;;;5118235;28;20127;-89
2021/06/18 12:50:54;;;;;;;12.90;11.45;;;23.40;99.90;;;;;;5118436;28;20093;-89
2021/06/18 12:53:41;;;;;;;13.52;10.82;;;23.50;99.90;;;;;;5117701;28;20039;-89
2021/06/18 12:56:16;;;;;;;13.45;10.25;;;23.50;99.90;;;;;;5117456;28;20044;-90
2021/06/18 12:58:51;;;;;;;15.30;11.30;;;23.50;99.90;;;;;;5113611;28;20099;-85
2021/06/18 13:01:45;;;;;;;14.32;9.73;;;23.80;99.90;;;;;;5094644;28;20118;-83
2021/06/18 13:04:37;;;;;;;13.77;10.77;;;23.70;99.90;;;;;;5094701;28;20057;-81